Blue Moon — ZCOG4 — position and weather

sailwx.info

Track history (hours):
 
Tides and Currents Weather Stations Pressure Air Temp Water Temp Dewpoint Dewpoint Depression Visibility Wind Speed Wind Dir Waves Ship Positions

Blue Moon

Last reported at 2018-Jul-07 20:40 UTC. Time now 2018-Jul-20 08:33 UTC.
Position N 45°18' W 073°56'.
Warning: this ship's position is 12 days out of date.

Length 60 m; draft 3.3 m.

Type: Pleasure craft. MMSI: 319984000.

Date/timePositionNaut miles runAvg speedWind from/ knotsBaromVisibWave heightAir tempDewpointWater temp
2018-Jul-07 20:40N 45°18' W 073°56'0 2.7
2018-Jul-07 20:31N 45°18' W 073°56'0 0.8
2018-Jul-07 19:54N 45°19' W 073°55'0 0.7
2018-Jul-07 19:13N 45°19' W 073°55'1 5.5
2018-Jul-07 19:00N 45°20' W 073°54'612.5
2018-Jul-07 18:31N 45°24' W 073°47'5 9.8
2018-Jul-07 18:00N 45°25' W 073°40'3 6.3
2018-Jul-07 17:30N 45°24' W 073°36'1 2.8
2018-Jul-07 17:01N 45°24' W 073°34'0 0.0
2018-Jul-07 16:31N 45°24' W 073°34'1 1.5
2018-Jul-07 16:00N 45°24' W 073°33'3 5.5
2018-Jul-07 15:31N 45°26' W 073°30'3 6.5
2018-Jul-07 15:01N 45°29' W 073°31'0 0.3
2018-Jul-07 14:25N 45°30' W 073°31'1 1.3
2018-Jul-07 14:00N 45°30' W 073°31'  
2018-Jul-03 22:47N 45°43' W 073°26'310.4
2018-Jul-03 22:30N 45°46' W 073°23'510.6
2018-Jul-03 22:00N 45°49' W 073°18'510.2
2018-Jul-03 21:30N 45°54' W 073°14'510.8
2018-Jul-03 21:01N 45°59' W 073°11'610.9
2018-Jul-03 20:30N 46°03' W 073°07'9112.0
2018-Jul-03 12:55N 46°48' W 071°12'  
Track history (hours):
 
Tides and Currents Weather Stations Pressure Air Temp Water Temp Dewpoint Dewpoint Depression Visibility Wind Speed Wind Dir Waves Ship Positions

Blue Moon

Last reported at 2018-Jul-07 20:40 UTC. Time now 2018-Jul-20 08:33 UTC.
Position N 45°18' W 073°56'.
Warning: this ship's position is 12 days out of date.

Length 60 m; draft 3.3 m.

Type: Pleasure craft. MMSI: 319984000.

Date/timePositionNaut miles runAvg speedWind from/ knotsBaromVisibWave heightAir tempDewpointWater temp
2018-Jul-07 20:40N 45°18' W 073°56'0 2.7
2018-Jul-07 20:31N 45°18' W 073°56'0 0.8
2018-Jul-07 19:54N 45°19' W 073°55'0 0.7
2018-Jul-07 19:13N 45°19' W 073°55'1 5.5
2018-Jul-07 19:00N 45°20' W 073°54'612.5
2018-Jul-07 18:31N 45°24' W 073°47'5 9.8
2018-Jul-07 18:00N 45°25' W 073°40'3 6.3
2018-Jul-07 17:30N 45°24' W 073°36'1 2.8
2018-Jul-07 17:01N 45°24' W 073°34'0 0.0
2018-Jul-07 16:31N 45°24' W 073°34'1 1.5
2018-Jul-07 16:00N 45°24' W 073°33'3 5.5
2018-Jul-07 15:31N 45°26' W 073°30'3 6.5
2018-Jul-07 15:01N 45°29' W 073°31'0 0.3
2018-Jul-07 14:25N 45°30' W 073°31'1 1.3
2018-Jul-07 14:00N 45°30' W 073°31'  
2018-Jul-03 22:47N 45°43' W 073°26'310.4
2018-Jul-03 22:30N 45°46' W 073°23'510.6
2018-Jul-03 22:00N 45°49' W 073°18'510.2
2018-Jul-03 21:30N 45°54' W 073°14'510.8
2018-Jul-03 21:01N 45°59' W 073°11'610.9
2018-Jul-03 20:30N 46°03' W 073°07'9112.0
2018-Jul-03 12:55N 46°48' W 071°12'  

Dump ship's entire track history